N17 weather

Vaughn Municipal Airport
Vaughn, New Mexico, United States

Public forecast

Using degrees Fahrenheit for public forecast. Weather courtesy of forecast.io.

Closest aviation weather report (METAR) to Vaughn Municipal Airport

Closest report is Moriarty Municipal Airport, 45.8 nm (84.7 km) WNW. Retrieved UTC (0 seconds ago):

Closest aviation forecast (TAF) to Vaughn Municipal Airport

Closest forecast is Las Vegas Municipal Airport, 63.1 nm (116.8 km) N. Retrieved 2020-02-21 00:42 UTC (5 hours ago):

TAF KLVS 202339Z 2100/2124 16011KT P6SM OVC015 FM210200 17008KT P6SM BKN025 FM210800 18008KT P6SM SCT040 FM211600 19011KT P6SM BKN250 FM212000 20013KT P6SM BKN200